createdAt,value
2018-01-14T00:00:09.319Z,53.84
2018-01-14T00:01:09.313Z,53.55
2018-01-14T00:02:09.304Z,53.84
2018-01-14T00:03:09.299Z,53.87
2018-01-14T00:04:09.293Z,53.74
2018-01-14T00:05:09.298Z,53.55
2018-01-14T00:06:09.278Z,53.55
2018-01-14T00:07:09.273Z,53.94
2018-01-14T00:08:09.268Z,53.74
2018-01-14T00:09:09.259Z,54.13
2018-01-14T00:10:09.250Z,53.94
2018-01-14T00:11:09.247Z,53.74
2018-01-14T00:12:09.242Z,53.84
2018-01-14T00:13:09.234Z,53.96
2018-01-14T00:14:09.228Z,53.74
2018-01-14T00:15:09.222Z,54.13
2018-01-14T00:16:09.215Z,54.13
2018-01-14T00:17:09.211Z,54.22
2018-01-14T00:18:09.203Z,54.03
2018-01-14T00:19:09.196Z,54.16
2018-01-14T00:20:09.191Z,53.96
2018-01-14T00:21:09.185Z,53.94
2018-01-14T00:22:09.181Z,54.03
2018-01-14T00:23:09.173Z,54.22
2018-01-14T00:24:09.164Z,53.94
2018-01-14T00:25:09.157Z,54.06
2018-01-14T00:26:09.150Z,53.94
2018-01-14T00:27:09.157Z,53.96
2018-01-14T00:28:09.141Z,54.44
2018-01-14T00:29:09.132Z,54.44
2018-01-14T00:30:09.128Z,54.52
2018-01-14T00:31:09.119Z,54.54
2018-01-14T00:32:09.112Z,54.54
2018-01-14T00:33:09.105Z,54.54
2018-01-14T00:34:09.099Z,54.16
2018-01-14T00:35:09.109Z,54.16
2018-01-14T00:36:09.086Z,54.16
2018-01-14T00:37:09.079Z,54.32
2018-01-14T00:38:09.073Z,54.44
2018-01-14T00:39:09.067Z,54.42
2018-01-14T00:40:09.060Z,54.93
2018-01-14T00:41:09.055Z,54.93
2018-01-14T00:42:09.048Z,54.71
2018-01-14T00:43:09.041Z,54.83
2018-01-14T00:44:09.042Z,55.02
2018-01-14T00:45:09.028Z,54.64
2018-01-14T00:46:09.022Z,54.71
2018-01-14T00:47:09.017Z,54.83
2018-01-14T00:48:09.016Z,54.80
2018-01-14T00:49:09.003Z,54.71
2018-01-14T00:50:08.999Z,54.80
2018-01-14T00:51:08.990Z,54.61
2018-01-14T00:52:08.984Z,54.74
2018-01-14T00:53:08.979Z,54.83
2018-01-14T00:54:08.972Z,54.93
2018-01-14T00:55:08.964Z,54.80
2018-01-14T00:56:08.958Z,54.74
2018-01-14T00:57:08.952Z,54.74
2018-01-14T00:58:08.956Z,54.74
2018-01-14T00:59:08.939Z,54.83
2018-01-14T01:00:08.934Z,54.74
2018-01-14T01:01:08.927Z,54.83
2018-01-14T01:02:08.919Z,54.74
2018-01-14T01:03:08.915Z,54.44
2018-01-14T01:04:08.910Z,54.74
2018-01-14T01:05:08.908Z,54.54
2018-01-14T01:06:08.894Z,54.64
2018-01-14T01:07:08.887Z,54.74
2018-01-14T01:08:08.882Z,54.83
2018-01-14T01:09:08.876Z,54.64
2018-01-14T01:10:08.869Z,54.83
2018-01-14T01:11:08.864Z,54.93
2018-01-14T01:12:08.855Z,54.93
2018-01-14T01:13:08.859Z,54.74
2018-01-14T01:14:08.842Z,54.83
2018-01-14T01:15:08.838Z,54.83
2018-01-14T01:16:08.830Z,54.83
2018-01-14T01:17:08.824Z,54.83
2018-01-14T01:18:08.819Z,54.83
2018-01-14T01:19:08.812Z,54.74
2018-01-14T01:20:08.804Z,54.64
2018-01-14T01:21:08.799Z,54.64
2018-01-14T01:22:08.792Z,54.74
2018-01-14T01:23:08.786Z,54.74
2018-01-14T01:24:08.796Z,54.74
2018-01-14T01:25:08.773Z,54.64
2018-01-14T01:26:08.765Z,54.83
2018-01-14T01:27:08.760Z,54.54
2018-01-14T01:28:08.755Z,54.83
2018-01-14T01:29:08.750Z,54.44
2018-01-14T01:30:08.743Z,54.54
2018-01-14T01:31:08.735Z,54.74
2018-01-14T01:32:08.733Z,54.54
2018-01-14T01:33:08.721Z,54.54
2018-01-14T01:34:08.715Z,54.64
2018-01-14T01:35:08.709Z,54.54
2018-01-14T01:36:08.703Z,54.54
2018-01-14T01:37:08.697Z,54.54
2018-01-14T01:38:08.690Z,54.54
2018-01-14T01:39:08.684Z,54.54
2018-01-14T01:40:08.678Z,54.54
2018-01-14T01:41:08.672Z,54.54
2018-01-14T01:42:08.664Z,54.64
2018-01-14T01:43:08.659Z,55.22
2018-01-14T01:44:08.654Z,54.83
2018-01-14T01:45:08.646Z,54.83
2018-01-14T01:46:08.639Z,54.83
2018-01-14T01:47:08.633Z,54.83
2018-01-14T01:48:08.629Z,54.93
2018-01-14T01:49:08.620Z,54.83
2018-01-14T01:50:08.615Z,54.83
2018-01-14T01:51:08.608Z,55.02
2018-01-14T01:52:08.602Z,55.02
2018-01-14T01:53:08.595Z,54.64
2018-01-14T01:54:08.591Z,54.64
2018-01-14T01:55:08.581Z,55.02
2018-01-14T01:56:08.578Z,54.74
2018-01-14T01:57:08.570Z,54.74
2018-01-14T01:58:08.562Z,55.12
2018-01-14T01:59:08.557Z,55.02
2018-01-14T02:00:08.551Z,55.02
2018-01-14T02:01:08.547Z,54.83
2018-01-14T02:02:08.537Z,55.31
2018-01-14T02:03:08.532Z,55.31
2018-01-14T02:04:08.524Z,54.74
2018-01-14T02:05:08.523Z,55.31
2018-01-14T02:06:08.511Z,54.93
2018-01-14T02:07:08.505Z,54.83
2018-01-14T02:08:08.499Z,54.83
2018-01-14T02:09:08.493Z,54.74
2018-01-14T02:10:08.485Z,54.83
2018-01-14T02:11:08.481Z,54.83
2018-01-14T02:12:08.474Z,55.02
2018-01-14T02:13:08.467Z,54.93
2018-01-14T02:14:08.462Z,55.41
2018-01-14T02:15:08.455Z,55.31
2018-01-14T02:16:08.448Z,55.22
2018-01-14T02:17:08.441Z,55.22
2018-01-14T02:18:08.433Z,55.12
2018-01-14T02:19:08.430Z,55.12
2018-01-14T02:20:08.428Z,55.22
2018-01-14T02:21:08.418Z,55.22
2018-01-14T02:22:08.409Z,55.31
2018-01-14T02:23:08.404Z,55.12
2018-01-14T02:24:08.395Z,55.31
2018-01-14T02:25:08.387Z,55.12
2018-01-14T02:26:08.384Z,55.22
2018-01-14T02:27:08.381Z,55.31
2018-01-14T02:28:08.373Z,55.12
2018-01-14T02:29:08.366Z,55.12
2018-01-14T02:30:08.359Z,55.31
2018-01-14T02:31:08.354Z,55.12
2018-01-14T02:32:08.352Z,55.12
2018-01-14T02:33:08.340Z,55.02
2018-01-14T02:34:08.332Z,55.51
2018-01-14T02:35:08.332Z,55.02
2018-01-14T02:36:08.320Z,55.41
2018-01-14T02:37:08.317Z,55.22
2018-01-14T02:38:08.310Z,55.22
2018-01-14T02:39:08.300Z,55.31
2018-01-14T02:40:08.297Z,55.12
2018-01-14T02:41:08.291Z,55.41
2018-01-14T02:42:08.282Z,55.79
2018-01-14T02:43:08.276Z,55.12
2018-01-14T02:44:08.272Z,55.79
2018-01-14T02:45:08.264Z,55.89
2018-01-14T02:46:08.256Z,55.51
2018-01-14T02:47:08.249Z,55.79
2018-01-14T02:48:08.250Z,55.51
2018-01-14T02:49:08.242Z,55.51
2018-01-14T02:50:08.231Z,55.89
2018-01-14T02:51:08.225Z,55.51
2018-01-14T02:52:08.220Z,55.60
2018-01-14T02:53:08.214Z,55.60
2018-01-14T02:54:08.206Z,55.60
2018-01-14T02:55:08.201Z,55.51
2018-01-14T02:56:08.193Z,55.60
2018-01-14T02:57:08.223Z,55.51
2018-01-14T02:58:08.191Z,55.60
2018-01-14T02:59:08.177Z,55.79
2018-01-14T03:00:08.202Z,55.60
2018-01-14T03:01:08.163Z,55.51
2018-01-14T03:02:08.172Z,55.51
2018-01-14T03:03:08.148Z,55.60
2018-01-14T03:04:08.162Z,55.60
2018-01-14T03:05:08.136Z,55.51
2018-01-14T03:06:08.210Z,55.70
2018-01-14T03:07:08.124Z,55.60
2018-01-14T03:08:08.183Z,55.60
2018-01-14T03:09:08.110Z,55.79
2018-01-14T03:10:08.158Z,55.79
2018-01-14T03:11:08.098Z,55.38
2018-01-14T03:12:08.136Z,55.67
2018-01-14T03:13:08.085Z,55.48
2018-01-14T03:14:08.108Z,55.67
2018-01-14T03:15:08.074Z,55.57
2018-01-14T03:16:08.091Z,55.57
2018-01-14T03:17:08.060Z,55.29
2018-01-14T03:18:08.067Z,55.57
2018-01-14T03:19:08.048Z,55.48
2018-01-14T03:20:08.048Z,55.38
2018-01-14T03:21:08.035Z,55.57
2018-01-14T03:22:08.029Z,55.41
2018-01-14T03:23:08.022Z,55.48
2018-01-14T03:24:08.016Z,55.38
2018-01-14T03:25:08.010Z,55.38
2018-01-14T03:26:08.003Z,55.38
2018-01-14T03:27:07.997Z,55.48
2018-01-14T03:28:07.988Z,55.38
2018-01-14T03:29:07.984Z,55.38
2018-01-14T03:30:07.977Z,55.29
2018-01-14T03:31:07.972Z,55.57
2018-01-14T03:32:07.965Z,55.38
2018-01-14T03:33:07.963Z,55.19
2018-01-14T03:34:07.950Z,55.19
2018-01-14T03:35:07.953Z,55.57
2018-01-14T03:36:07.951Z,55.57
2018-01-14T03:37:07.932Z,55.19
2018-01-14T03:38:07.926Z,55.57
2018-01-14T03:39:07.922Z,55.48
2018-01-14T03:40:07.915Z,55.48
2018-01-14T03:41:07.907Z,55.57
2018-01-14T03:42:07.900Z,55.57
2018-01-14T03:43:07.894Z,55.57
2018-01-14T03:44:07.889Z,55.67
2018-01-14T03:45:07.881Z,55.77
2018-01-14T03:46:07.877Z,55.57
2018-01-14T03:47:07.870Z,55.77
2018-01-14T03:48:07.865Z,55.77
2018-01-14T03:49:07.857Z,55.77
2018-01-14T03:50:07.849Z,55.67
2018-01-14T03:51:07.843Z,55.77
2018-01-14T03:52:07.840Z,55.77
2018-01-14T03:53:07.831Z,55.77
2018-01-14T03:54:07.824Z,55.77
2018-01-14T03:55:07.818Z,55.57
2018-01-14T03:56:07.811Z,55.57
2018-01-14T03:57:07.805Z,55.77
2018-01-14T03:58:07.802Z,55.29
2018-01-14T03:59:07.792Z,55.57
2018-01-14T04:00:07.786Z,55.67
2018-01-14T04:01:07.779Z,55.57
2018-01-14T04:02:07.773Z,55.57
2018-01-14T04:03:07.768Z,55.57
2018-01-14T04:04:07.760Z,55.19
2018-01-14T04:05:07.755Z,55.48
2018-01-14T04:06:07.746Z,55.41
2018-01-14T04:07:07.741Z,55.51
2018-01-14T04:08:07.735Z,55.51
2018-01-14T04:09:07.729Z,55.51
2018-01-14T04:10:07.721Z,55.51
2018-01-14T04:11:07.716Z,55.79
2018-01-14T04:12:07.708Z,55.79
2018-01-14T04:13:07.702Z,55.70
2018-01-14T04:14:07.696Z,55.12
2018-01-14T04:15:07.707Z,55.31
2018-01-14T04:16:07.685Z,55.22
2018-01-14T04:17:07.681Z,55.41
2018-01-14T04:18:07.671Z,55.22
2018-01-14T04:19:07.664Z,55.12
2018-01-14T04:20:07.660Z,55.31
2018-01-14T04:21:07.654Z,55.31
2018-01-14T04:22:07.646Z,55.12
2018-01-14T04:23:07.638Z,55.12
2018-01-14T04:24:07.634Z,55.22
2018-01-14T04:25:07.627Z,55.51
2018-01-14T04:26:07.619Z,55.22
2018-01-14T04:27:07.613Z,55.41
2018-01-14T04:28:07.609Z,55.22
2018-01-14T04:29:07.602Z,55.12
2018-01-14T04:30:07.596Z,55.12
2018-01-14T04:31:07.589Z,55.22
2018-01-14T04:32:07.583Z,55.12
2018-01-14T04:33:07.576Z,54.93
2018-01-14T04:34:07.570Z,55.12
2018-01-14T04:35:07.563Z,55.12
2018-01-14T04:36:07.557Z,55.22
2018-01-14T04:37:07.553Z,55.41
2018-01-14T04:38:07.545Z,55.41
2018-01-14T04:39:07.550Z,55.12
2018-01-14T04:40:07.533Z,55.12
2018-01-14T04:41:07.544Z,55.31
2018-01-14T04:42:07.524Z,55.12
2018-01-14T04:43:07.514Z,55.89
2018-01-14T04:44:07.513Z,55.89
2018-01-14T04:45:07.495Z,55.79
2018-01-14T04:46:07.505Z,55.60
2018-01-14T04:47:07.488Z,55.60
2018-01-14T04:48:07.485Z,55.31
2018-01-14T04:49:07.477Z,55.51
2018-01-14T04:50:07.470Z,55.51
2018-01-14T04:51:07.466Z,55.41
2018-01-14T04:52:07.458Z,55.51
2018-01-14T04:53:07.453Z,55.41
2018-01-14T04:54:07.445Z,55.60
2018-01-14T04:55:07.438Z,55.51
2018-01-14T04:56:07.435Z,55.51
2018-01-14T04:57:07.424Z,55.60
2018-01-14T04:58:07.421Z,55.60
2018-01-14T04:59:07.415Z,55.31
2018-01-14T05:00:07.410Z,55.51
2018-01-14T05:01:07.453Z,55.60
2018-01-14T05:02:07.397Z,55.51
2018-01-14T05:03:07.392Z,55.70
2018-01-14T05:04:07.383Z,55.51
2018-01-14T05:05:07.378Z,55.60
2018-01-14T05:06:07.372Z,55.60
2018-01-14T05:07:07.373Z,55.51
2018-01-14T05:08:07.365Z,55.60
2018-01-14T05:09:07.354Z,55.60
2018-01-14T05:10:07.347Z,55.60
2018-01-14T05:11:07.339Z,55.79
2018-01-14T05:12:07.334Z,55.60
2018-01-14T05:13:07.328Z,55.41
2018-01-14T05:14:07.320Z,55.60
2018-01-14T05:15:07.315Z,55.51
2018-01-14T05:16:07.309Z,55.41
2018-01-14T05:17:07.309Z,55.31
2018-01-14T05:18:07.298Z,55.51
2018-01-14T05:19:07.289Z,55.22
2018-01-14T05:20:07.285Z,55.41
2018-01-14T05:21:07.278Z,55.41
2018-01-14T05:22:07.272Z,55.51
2018-01-14T05:23:07.265Z,55.41
2018-01-14T05:24:07.261Z,55.51
2018-01-14T05:25:07.254Z,55.31
2018-01-14T05:26:07.246Z,55.41
2018-01-14T05:27:07.239Z,55.51
2018-01-14T05:28:07.233Z,55.60
2018-01-14T05:29:07.227Z,55.51
2018-01-14T05:30:07.221Z,55.41
2018-01-14T05:31:07.215Z,55.41
2018-01-14T05:32:07.211Z,55.31
2018-01-14T05:33:07.208Z,55.31
2018-01-14T05:34:07.196Z,55.60
2018-01-14T05:35:07.189Z,55.60
2018-01-14T05:36:07.192Z,55.51
2018-01-14T05:37:07.178Z,55.60
2018-01-14T05:38:07.171Z,55.60
2018-01-14T05:39:07.165Z,55.70
2018-01-14T05:40:07.161Z,55.60
2018-01-14T05:41:07.154Z,55.60
2018-01-14T05:42:07.146Z,55.70
2018-01-14T05:43:07.141Z,55.60
2018-01-14T05:44:07.134Z,55.70
2018-01-14T05:45:07.128Z,55.60
2018-01-14T05:46:07.122Z,55.60
2018-01-14T05:47:07.114Z,55.41
2018-01-14T05:48:07.109Z,55.31
2018-01-14T05:49:07.104Z,55.51
2018-01-14T05:50:07.096Z,55.51
2018-01-14T05:51:07.091Z,55.31
2018-01-14T05:52:07.085Z,55.51
2018-01-14T05:53:07.078Z,55.41
2018-01-14T05:54:07.070Z,55.51
2018-01-14T05:55:07.066Z,55.41
2018-01-14T05:56:07.058Z,55.60
2018-01-14T05:57:07.054Z,55.31
2018-01-14T05:58:07.046Z,55.70
2018-01-14T05:59:07.041Z,55.60
2018-01-14T06:00:07.034Z,55.60
2018-01-14T06:01:07.028Z,55.60
2018-01-14T06:02:07.022Z,55.79
2018-01-14T06:03:07.017Z,55.79
2018-01-14T06:04:07.009Z,55.60
2018-01-14T06:05:07.008Z,55.60
2018-01-14T06:06:06.996Z,55.70
2018-01-14T06:07:06.991Z,55.60
2018-01-14T06:08:06.984Z,55.89
2018-01-14T06:09:06.978Z,55.89
2018-01-14T06:10:06.975Z,55.60
2018-01-14T06:11:06.968Z,55.89
2018-01-14T06:12:06.960Z,55.60
2018-01-14T06:13:06.949Z,55.60
2018-01-14T06:14:06.947Z,55.51
2018-01-14T06:15:06.943Z,55.79
2018-01-14T06:16:06.954Z,55.60
2018-01-14T06:17:06.930Z,55.60
2018-01-14T06:18:06.922Z,55.60
2018-01-14T06:19:06.918Z,55.79
2018-01-14T06:20:06.908Z,55.79
2018-01-14T06:21:06.903Z,55.70
2018-01-14T06:22:06.898Z,55.79
2018-01-14T06:23:06.894Z,55.60
2018-01-14T06:24:06.885Z,55.51
2018-01-14T06:25:06.879Z,55.60
2018-01-14T06:26:06.876Z,55.70
2018-01-14T06:27:06.867Z,55.70
2018-01-14T06:28:06.862Z,55.70
2018-01-14T06:29:06.853Z,55.60
2018-01-14T06:30:06.846Z,55.60
2018-01-14T06:31:06.843Z,55.70
2018-01-14T06:32:06.840Z,55.51
2018-01-14T06:33:06.828Z,55.51
2018-01-14T06:34:06.823Z,55.51
2018-01-14T06:35:06.818Z,55.31
2018-01-14T06:36:06.810Z,55.31
2018-01-14T06:37:06.804Z,55.41
2018-01-14T06:38:06.796Z,55.41
2018-01-14T06:39:06.794Z,55.41
2018-01-14T06:40:06.785Z,55.51
2018-01-14T06:41:06.781Z,55.31
2018-01-14T06:42:06.771Z,55.41
2018-01-14T06:43:06.765Z,55.41
2018-01-14T06:44:06.757Z,55.41
2018-01-14T06:45:06.756Z,55.51
2018-01-14T06:46:06.746Z,55.60
2018-01-14T06:47:06.740Z,55.31
2018-01-14T06:48:06.734Z,55.31
2018-01-14T06:49:06.729Z,55.41
2018-01-14T06:50:06.722Z,55.60
2018-01-14T06:51:06.718Z,55.41
2018-01-14T06:52:06.709Z,55.22
2018-01-14T06:53:06.705Z,55.41
2018-01-14T06:54:06.701Z,55.51
2018-01-14T06:55:06.690Z,55.60
2018-01-14T06:56:06.685Z,55.31
2018-01-14T06:57:06.680Z,55.41
2018-01-14T06:58:06.672Z,55.51
2018-01-14T06:59:06.665Z,55.31
2018-01-14T07:00:06.660Z,55.51
2018-01-14T07:01:06.655Z,55.31
2018-01-14T07:02:06.647Z,55.41
2018-01-14T07:03:06.640Z,55.60
2018-01-14T07:04:06.633Z,55.41
2018-01-14T07:05:06.629Z,55.31
2018-01-14T07:06:06.621Z,55.41
2018-01-14T07:07:06.616Z,55.60
2018-01-14T07:08:06.610Z,55.60
2018-01-14T07:09:06.601Z,55.60
2018-01-14T07:10:06.597Z,55.60
2018-01-14T07:11:06.591Z,55.60
2018-01-14T07:12:06.584Z,55.70
2018-01-14T07:13:06.581Z,55.79
2018-01-14T07:14:06.571Z,55.79
2018-01-14T07:15:06.566Z,55.70
2018-01-14T07:16:06.561Z,55.79
2018-01-14T07:17:06.553Z,55.79
2018-01-14T07:18:06.546Z,55.60
2018-01-14T07:19:06.540Z,55.89
2018-01-14T07:20:06.535Z,55.89
2018-01-14T07:21:06.528Z,55.60
2018-01-14T07:22:06.521Z,55.89
2018-01-14T07:23:06.516Z,55.79
2018-01-14T07:24:06.512Z,55.79
2018-01-14T07:25:06.503Z,55.89
2018-01-14T07:26:06.496Z,55.89
2018-01-14T07:27:06.489Z,55.79
2018-01-14T07:28:06.484Z,55.89
2018-01-14T07:29:06.478Z,55.89
2018-01-14T07:30:06.470Z,55.89
2018-01-14T07:31:06.466Z,55.60
2018-01-14T07:32:06.460Z,55.89
2018-01-14T07:33:06.459Z,55.41
2018-01-14T07:34:06.447Z,55.89
2018-01-14T07:35:06.440Z,55.89
2018-01-14T07:36:06.432Z,55.41
2018-01-14T07:37:06.429Z,55.79
2018-01-14T07:38:06.423Z,55.79
2018-01-14T07:39:06.418Z,55.79
2018-01-14T07:40:06.410Z,55.79
2018-01-14T07:41:06.405Z,55.60
2018-01-14T07:42:06.396Z,55.70
2018-01-14T07:43:06.389Z,55.51
2018-01-14T07:44:06.390Z,55.51
2018-01-14T07:45:06.378Z,55.60
2018-01-14T07:46:06.371Z,55.60
2018-01-14T07:47:06.364Z,55.60
2018-01-14T07:48:06.359Z,55.60
2018-01-14T07:49:06.354Z,55.79
2018-01-14T07:50:06.347Z,55.89
2018-01-14T07:51:06.340Z,55.41
2018-01-14T07:52:06.335Z,55.51
2018-01-14T07:53:06.330Z,55.79
2018-01-14T07:54:06.321Z,55.70
2018-01-14T07:55:06.316Z,55.41
2018-01-14T07:56:06.310Z,55.60
2018-01-14T07:57:06.303Z,55.60
2018-01-14T07:58:06.305Z,55.99
2018-01-14T07:59:06.329Z,55.79
2018-01-14T08:00:06.325Z,55.89
2018-01-14T08:01:06.298Z,56.09
2018-01-14T08:02:06.294Z,55.70
2018-01-14T08:03:06.301Z,56.09
2018-01-14T08:04:06.259Z,56.18
2018-01-14T08:05:06.254Z,56.27
2018-01-14T08:06:06.247Z,56.18
2018-01-14T08:07:06.240Z,56.09
2018-01-14T08:08:06.235Z,56.09
2018-01-14T08:09:06.250Z,56.18
2018-01-14T08:10:06.221Z,56.09
2018-01-14T08:11:06.214Z,56.18
2018-01-14T08:12:06.202Z,55.89
2018-01-14T08:13:06.203Z,55.99
2018-01-14T08:14:06.205Z,56.09
2018-01-14T08:15:06.191Z,55.99
2018-01-14T08:16:06.184Z,55.99
2018-01-14T08:17:06.178Z,56.27
2018-01-14T08:18:06.173Z,56.27
2018-01-14T08:19:06.166Z,56.37
2018-01-14T08:20:06.158Z,56.37
2018-01-14T08:21:06.152Z,56.37
2018-01-14T08:22:06.145Z,56.27
2018-01-14T08:23:06.139Z,56.18
2018-01-14T08:24:06.132Z,56.09
2018-01-14T08:25:06.126Z,55.99
2018-01-14T08:26:06.120Z,56.27
2018-01-14T08:27:06.116Z,56.27
2018-01-14T08:28:06.108Z,56.27
2018-01-14T08:29:06.106Z,56.37
2018-01-14T08:30:06.094Z,56.47
2018-01-14T08:31:06.092Z,56.37
2018-01-14T08:32:06.083Z,56.57
2018-01-14T08:33:06.075Z,56.47
2018-01-14T08:34:06.071Z,56.47
2018-01-14T08:35:06.068Z,56.27
2018-01-14T08:36:06.058Z,56.47
2018-01-14T08:37:06.053Z,56.18
2018-01-14T08:38:06.045Z,56.18
2018-01-14T08:39:06.039Z,56.18
2018-01-14T08:40:06.034Z,56.09
2018-01-14T08:41:06.028Z,55.79
2018-01-14T08:42:06.020Z,56.09
2018-01-14T08:43:06.017Z,55.79
2018-01-14T08:44:06.010Z,55.79
2018-01-14T08:45:06.002Z,55.79
2018-01-14T08:46:06.008Z,56.09
2018-01-14T08:47:05.990Z,55.99
2018-01-14T08:48:05.984Z,56.09
2018-01-14T08:49:05.978Z,56.18
2018-01-14T08:50:05.972Z,55.99
2018-01-14T08:51:05.969Z,55.89
2018-01-14T08:52:05.961Z,56.18
2018-01-14T08:53:05.951Z,56.18
2018-01-14T08:54:05.947Z,56.09
2018-01-14T08:55:05.943Z,56.27
2018-01-14T08:56:05.934Z,56.27
2018-01-14T08:57:05.927Z,56.18
2018-01-14T08:58:05.921Z,56.27
2018-01-14T08:59:05.915Z,56.27
2018-01-14T09:00:05.909Z,56.18
2018-01-14T09:01:05.904Z,55.99
2018-01-14T09:02:05.899Z,56.18
2018-01-14T09:03:05.891Z,56.18
2018-01-14T09:04:05.885Z,56.18
2018-01-14T09:05:05.878Z,56.09
2018-01-14T09:06:05.872Z,55.99
2018-01-14T09:07:05.864Z,55.79
2018-01-14T09:08:05.860Z,56.09
2018-01-14T09:09:05.854Z,55.99
2018-01-14T09:10:05.848Z,55.41
2018-01-14T09:11:05.841Z,55.70
2018-01-14T09:12:05.834Z,55.60
2018-01-14T09:13:05.829Z,55.60
2018-01-14T09:14:05.822Z,55.89
2018-01-14T09:15:05.816Z,55.89
2018-01-14T09:16:05.810Z,55.60
2018-01-14T09:17:05.803Z,55.79
2018-01-14T09:18:05.816Z,55.60
2018-01-14T09:19:05.820Z,55.51
2018-01-14T09:20:05.785Z,55.51
2018-01-14T09:21:05.779Z,55.51
2018-01-14T09:22:05.773Z,55.41
2018-01-14T09:23:05.765Z,55.41
2018-01-14T09:24:05.761Z,55.31
2018-01-14T09:25:05.754Z,55.51
2018-01-14T09:26:05.748Z,55.60
2018-01-14T09:27:05.743Z,55.60
2018-01-14T09:28:05.738Z,55.79
2018-01-14T09:29:05.733Z,55.79
2018-01-14T09:30:05.727Z,55.51
2018-01-14T09:31:05.716Z,55.51
2018-01-14T09:32:05.709Z,55.60
2018-01-14T09:33:05.703Z,55.22
2018-01-14T09:34:05.699Z,55.41
2018-01-14T09:35:05.693Z,55.31
2018-01-14T09:36:05.684Z,55.02
2018-01-14T09:37:05.685Z,55.41
2018-01-14T09:38:05.680Z,55.15
2018-01-14T09:39:05.665Z,55.34
2018-01-14T09:40:05.658Z,55.34
2018-01-14T09:41:05.652Z,54.66
2018-01-14T09:42:05.650Z,54.57
2018-01-14T09:43:05.644Z,54.86
2018-01-14T09:44:05.636Z,54.79
2018-01-14T09:45:05.629Z,54.50
2018-01-14T09:46:05.622Z,54.02
2018-01-14T09:47:05.616Z,54.24
2018-01-14T09:48:05.611Z,53.75
2018-01-14T09:49:05.603Z,53.59
2018-01-14T09:50:05.600Z,53.30
2018-01-14T09:51:05.592Z,52.84
2018-01-14T09:52:05.587Z,52.55
2018-01-14T09:53:05.582Z,52.58
2018-01-14T09:54:05.575Z,52.19
2018-01-14T09:55:05.573Z,52.12
2018-01-14T09:56:05.566Z,51.73
2018-01-14T09:57:05.585Z,51.76
2018-01-14T09:58:05.556Z,51.56
2018-01-14T09:59:05.551Z,50.82
2018-01-14T10:00:05.549Z,50.62
2018-01-14T10:01:05.544Z,50.45
2018-01-14T10:02:05.540Z,50.35
2018-01-14T10:03:05.538Z,50.09
2018-01-14T10:04:05.535Z,49.80
2018-01-14T10:05:05.532Z,49.70
2018-01-14T10:06:05.527Z,49.73
2018-01-14T10:07:05.527Z,49.34
2018-01-14T10:08:05.523Z,49.44
2018-01-14T10:09:05.521Z,48.95
2018-01-14T10:10:05.526Z,48.78
2018-01-14T10:11:05.517Z,48.49
2018-01-14T10:12:05.515Z,48.69
2018-01-14T10:13:05.514Z,48.97
2018-01-14T10:14:05.519Z,48.20
2018-01-14T10:15:05.518Z,48.10
2018-01-14T10:16:05.510Z,48.39
2018-01-14T10:17:05.508Z,47.83
2018-01-14T10:18:05.504Z,48.00
2018-01-14T10:19:05.505Z,47.81
2018-01-14T10:20:05.504Z,47.72
2018-01-14T10:21:05.503Z,47.62
2018-01-14T10:22:05.501Z,47.42
2018-01-14T10:23:05.504Z,47.52
2018-01-14T10:24:05.498Z,47.23
2018-01-14T10:25:05.500Z,46.94
2018-01-14T10:26:05.498Z,46.75
2018-01-14T10:27:05.502Z,47.03
2018-01-14T10:28:05.535Z,46.55
2018-01-14T10:29:05.495Z,46.82
2018-01-14T10:30:05.507Z,46.82
2018-01-14T10:31:05.491Z,46.92
2018-01-14T10:32:05.519Z,46.92
2018-01-14T10:33:05.488Z,47.02
2018-01-14T10:34:05.486Z,46.82
2018-01-14T10:35:05.484Z,46.92
2018-01-14T10:36:05.483Z,46.53
2018-01-14T10:37:05.479Z,46.72
2018-01-14T10:38:05.476Z,46.53
2018-01-14T10:39:05.475Z,46.53
2018-01-14T10:40:05.472Z,46.51
2018-01-14T10:41:05.469Z,46.70
2018-01-14T10:42:05.471Z,46.99
2018-01-14T10:43:05.462Z,46.77
2018-01-14T10:44:05.459Z,46.58
2018-01-14T10:45:05.459Z,46.97
2018-01-14T10:46:05.454Z,46.97
2018-01-14T10:47:05.448Z,46.87
2018-01-14T10:48:05.444Z,47.06
2018-01-14T10:49:05.449Z,46.97
2018-01-14T10:50:05.436Z,46.87
2018-01-14T10:51:05.431Z,46.94
2018-01-14T10:52:05.427Z,46.75
2018-01-14T10:53:05.424Z,46.84
2018-01-14T10:54:05.419Z,46.94
2018-01-14T10:55:05.415Z,46.75
2018-01-14T10:56:05.411Z,46.75
2018-01-14T10:57:05.407Z,46.46
2018-01-14T10:58:05.401Z,46.75
2018-01-14T10:59:05.397Z,46.56
2018-01-14T11:00:05.391Z,46.73
2018-01-14T11:01:05.420Z,46.73
2018-01-14T11:02:05.382Z,46.94
2018-01-14T11:03:05.379Z,47.11
2018-01-14T11:04:05.374Z,46.53
2018-01-14T11:05:05.367Z,46.73
2018-01-14T11:06:05.361Z,47.11
2018-01-14T11:07:05.357Z,46.83
2018-01-14T11:08:05.353Z,46.83
2018-01-14T11:09:05.357Z,46.83
2018-01-14T11:10:05.341Z,46.66
2018-01-14T11:11:05.339Z,46.73
2018-01-14T11:12:05.332Z,46.53
2018-01-14T11:13:05.321Z,46.92
2018-01-14T11:14:05.348Z,46.73
2018-01-14T11:15:05.314Z,46.73
2018-01-14T11:16:05.310Z,46.63
2018-01-14T11:17:05.306Z,46.83
2018-01-14T11:18:05.300Z,46.83
2018-01-14T11:19:05.294Z,46.73
2018-01-14T11:20:05.288Z,47.19
2018-01-14T11:21:05.283Z,46.80
2018-01-14T11:22:05.276Z,46.80
2018-01-14T11:23:05.271Z,47.19
2018-01-14T11:24:05.265Z,47.38
2018-01-14T11:25:05.260Z,47.45
2018-01-14T11:26:05.254Z,47.55
2018-01-14T11:27:05.247Z,47.74
2018-01-14T11:28:05.243Z,47.84
2018-01-14T11:29:05.237Z,47.74
2018-01-14T11:30:05.236Z,47.63
2018-01-14T11:31:05.224Z,47.94
2018-01-14T11:32:05.234Z,48.30
2018-01-14T11:33:05.216Z,47.91
2018-01-14T11:34:05.225Z,48.01
2018-01-14T11:35:05.199Z,48.01
2018-01-14T11:36:05.194Z,48.01
2018-01-14T11:37:05.188Z,48.49
2018-01-14T11:38:05.181Z,48.11
2018-01-14T11:39:05.175Z,48.49
2018-01-14T11:40:05.169Z,48.49
2018-01-14T11:41:05.163Z,48.49
2018-01-14T11:42:05.158Z,48.49
2018-01-14T11:43:05.149Z,48.11
2018-01-14T11:44:05.145Z,48.11
2018-01-14T11:45:05.138Z,47.91
2018-01-14T11:46:05.132Z,47.91
2018-01-14T11:47:05.126Z,48.49
2018-01-14T11:48:05.117Z,48.69
2018-01-14T11:49:05.112Z,48.59
2018-01-14T11:50:05.111Z,48.30
2018-01-14T11:51:05.100Z,48.49
2018-01-14T11:52:05.093Z,48.69
2018-01-14T11:53:05.088Z,47.91
2018-01-14T11:54:05.080Z,48.01
2018-01-14T11:55:05.074Z,48.11
2018-01-14T11:56:05.070Z,47.81
2018-01-14T11:57:05.067Z,48.01
2018-01-14T11:58:05.057Z,48.49
2018-01-14T11:59:05.048Z,48.39
2018-01-14T12:00:05.043Z,48.11
2018-01-14T12:01:05.036Z,48.11
2018-01-14T12:02:05.027Z,48.01
2018-01-14T12:03:05.022Z,47.91
2018-01-14T12:04:05.016Z,48.11
2018-01-14T12:05:05.009Z,48.01
2018-01-14T12:06:05.006Z,48.59
2018-01-14T12:07:04.996Z,48.49
2018-01-14T12:08:04.990Z,48.21
2018-01-14T12:09:04.983Z,47.91
2018-01-14T12:10:04.975Z,48.11
2018-01-14T12:11:04.970Z,48.11
2018-01-14T12:12:04.963Z,48.30
2018-01-14T12:13:04.958Z,48.30
2018-01-14T12:14:04.949Z,48.30
2018-01-14T12:15:04.945Z,48.21
2018-01-14T12:16:04.938Z,48.32
2018-01-14T12:17:04.934Z,48.11
2018-01-14T12:18:04.924Z,48.13
2018-01-14T12:19:04.919Z,48.30
2018-01-14T12:20:04.912Z,48.32
2018-01-14T12:21:04.906Z,48.30
2018-01-14T12:22:04.898Z,48.32
2018-01-14T12:23:04.892Z,48.30
2018-01-14T12:24:04.886Z,48.30
2018-01-14T12:25:04.880Z,48.42
2018-01-14T12:26:04.873Z,48.30
2018-01-14T12:27:04.866Z,48.13
2018-01-14T12:28:04.860Z,48.32
2018-01-14T12:29:04.853Z,48.21
2018-01-14T12:30:04.845Z,48.11
2018-01-14T12:31:04.840Z,48.11
2018-01-14T12:32:04.832Z,48.30
2018-01-14T12:33:04.827Z,48.21
2018-01-14T12:34:04.832Z,48.30
2018-01-14T12:35:04.813Z,48.30
2018-01-14T12:36:04.808Z,48.30
2018-01-14T12:37:04.804Z,48.11
2018-01-14T12:38:04.794Z,48.21
2018-01-14T12:39:04.788Z,48.01
2018-01-14T12:40:04.782Z,48.49
2018-01-14T12:41:04.775Z,48.21
2018-01-14T12:42:04.768Z,48.11
2018-01-14T12:43:04.788Z,48.59
2018-01-14T12:44:04.756Z,48.39
2018-01-14T12:45:04.749Z,48.59
2018-01-14T12:46:04.742Z,48.11
2018-01-14T12:47:04.733Z,48.01
2018-01-14T12:48:04.729Z,47.91
2018-01-14T12:49:04.723Z,48.11
2018-01-14T12:50:04.716Z,48.30
2018-01-14T12:51:04.708Z,48.79
2018-01-14T12:52:04.708Z,48.59